Time;durP1;ratioP1;P1;durP2;ratioP2;P2;SDS_P1;SDS_P2;PMS_P1;PMS_P2;Temp;Humidity;BMP_temperature;BMP_pressure;BME280_temperature;BME280_humidity;BME280_pressure;Samples;Min_cycle;Max_cycle;Signal;HPM_P1;HPM_P2
2022/07/15 00:02:23;;;;;;;8.45;1.38;;;15.20;81.40;;;;;;4959998;28;20027;-78
2022/07/15 00:04:48;;;;;;;7.53;1.13;;;15.20;81.70;;;;;;4976042;28;20026;-78
2022/07/15 00:07:14;;;;;;;4.20;0.85;;;15.10;81.80;;;;;;4976038;28;20035;-78
2022/07/15 00:12:24;;;;;;;6.20;1.10;;;15.10;82.10;;;;;;4977569;28;20037;-78
2022/07/15 00:14:50;;;;;;;4.85;0.98;;;15.00;82.30;;;;;;4959856;28;20026;-78
2022/07/15 00:17:16;;;;;;;8.20;0.93;;;15.00;83.10;;;;;;4959887;28;20080;-77
2022/07/15 00:19:42;;;;;;;3.72;1.05;;;15.00;82.50;;;;;;4959762;28;20105;-79
2022/07/15 00:22:08;;;;;;;6.22;0.90;;;14.90;82.50;;;;;;4959852;28;20092;-78
2022/07/15 00:24:34;;;;;;;8.57;1.17;;;14.90;82.60;;;;;;4975944;28;20030;-78
2022/07/15 00:27:02;;;;;;;5.38;1.08;;;14.90;82.80;;;;;;4975930;28;20480;-79
2022/07/15 00:29:27;;;;;;;4.25;0.90;;;14.90;82.90;;;;;;4960051;28;20073;-79
2022/07/15 00:31:53;;;;;;;5.15;0.80;;;14.80;82.90;;;;;;4959790;28;20026;-78
2022/07/15 00:34:20;;;;;;;5.97;1.23;;;14.80;83.10;;;;;;4976157;28;20113;-78
2022/07/15 00:36:46;;;;;;;8.38;0.90;;;14.80;83.20;;;;;;4959670;28;20090;-79
2022/07/15 00:39:11;;;;;;;5.72;1.00;;;14.80;83.40;;;;;;4959826;28;20471;-79
2022/07/15 00:41:38;;;;;;;4.82;1.00;;;14.80;83.50;;;;;;4991718;28;20063;-78
2022/07/15 00:44:04;;;;;;;4.25;0.70;;;14.80;83.70;;;;;;4976765;28;20061;-78
2022/07/15 00:46:30;;;;;;;10.40;0.88;;;14.80;83.80;;;;;;4975382;28;20023;-82
2022/07/15 00:48:57;;;;;;;6.82;1.15;;;14.70;83.80;;;;;;4959435;28;20035;-83
2022/07/15 00:51:22;;;;;;;5.75;1.40;;;14.70;84.00;;;;;;4959553;28;20078;-83
2022/07/15 00:53:49;;;;;;;3.65;1.00;;;14.70;84.10;;;;;;4959345;28;20035;-82
2022/07/15 00:56:17;;;;;;;5.88;0.90;;;14.70;84.30;;;;;;4959396;28;20498;-82
2022/07/15 00:58:44;;;;;;;5.15;0.90;;;14.70;84.40;;;;;;4976520;28;20026;-83
2022/07/15 01:01:11;;;;;;;4.13;1.13;;;14.70;84.40;;;;;;4959576;28;20019;-82
2022/07/15 01:03:37;;;;;;;4.22;0.80;;;14.70;84.50;;;;;;4959136;28;20078;-82
2022/07/15 01:06:03;;;;;;;6.38;1.10;;;14.70;84.60;;;;;;4975062;28;20023;-83
2022/07/15 01:08:29;;;;;;;3.83;0.80;;;14.60;84.70;;;;;;4976315;28;20030;-81
2022/07/15 01:10:55;;;;;;;4.60;1.10;;;14.60;85.00;;;;;;4990837;28;20514;-81
2022/07/15 01:13:22;;;;;;;5.57;0.90;;;14.60;85.10;;;;;;4943814;28;20114;-82
2022/07/15 01:15:48;;;;;;;7.15;0.70;;;14.60;85.30;;;;;;4958960;28;20140;-82
2022/07/15 01:18:14;;;;;;;6.72;1.33;;;14.70;85.40;;;;;;4976066;28;20023;-82
2022/07/15 01:20:41;;;;;;;8.10;1.10;;;14.70;85.50;;;;;;4958798;28;20037;-82
2022/07/15 01:23:07;;;;;;;3.67;0.70;;;14.70;85.60;;;;;;4974904;28;20471;-82
2022/07/15 01:25:33;;;;;;;6.15;0.85;;;14.70;85.70;;;;;;4958688;28;20038;-81
2022/07/15 01:27:59;;;;;;;4.47;0.90;;;14.80;85.80;;;;;;4942820;28;20060;-83
2022/07/15 01:30:25;;;;;;;2.50;0.63;;;14.80;86.50;;;;;;4990961;28;20049;-82
2022/07/15 01:32:51;;;;;;;5.70;0.95;;;14.90;86.80;;;;;;4974753;28;20030;-83
2022/07/15 01:35:17;;;;;;;4.65;1.10;;;14.90;86.30;;;;;;4974634;28;20109;-83
2022/07/15 01:37:44;;;;;;;7.95;0.90;;;14.90;86.40;;;;;;4958427;28;20126;-78
2022/07/15 01:40:11;;;;;;;4.60;0.80;;;14.90;86.40;;;;;;4974541;28;20027;-78
2022/07/15 01:42:37;;;;;;;7.88;1.30;;;14.90;86.40;;;;;;4990519;28;20379;-78
2022/07/15 01:45:05;;;;;;;7.25;0.88;;;14.90;86.50;;;;;;4990606;28;20126;-78
2022/07/15 01:47:32;;;;;;;4.88;1.02;;;14.90;86.70;;;;;;4974677;28;20073;-78
2022/07/15 01:49:58;;;;;;;7.30;0.82;;;14.90;86.70;;;;;;4974743;28;20023;-82
2022/07/15 01:52:24;;;;;;;6.40;0.98;;;14.90;86.80;;;;;;4974271;28;20061;-83
2022/07/15 01:54:50;;;;;;;6.18;0.77;;;14.90;86.90;;;;;;4974250;28;20034;-82
2022/07/15 01:57:17;;;;;;;7.32;1.00;;;14.90;87.00;;;;;;4958175;28;20039;-82
2022/07/15 01:59:42;;;;;;;6.07;1.17;;;14.90;87.20;;;;;;4974410;28;20120;-83
2022/07/15 02:02:08;;;;;;;3.90;0.73;;;14.90;87.30;;;;;;4942242;28;20070;-82
2022/07/15 02:04:34;;;;;;;4.20;0.98;;;14.90;87.30;;;;;;4975311;28;20027;-83
2022/07/15 02:06:59;;;;;;;8.13;0.75;;;14.90;87.30;;;;;;4958074;28;20034;-82
2022/07/15 02:09:25;;;;;;;9.07;1.33;;;14.90;87.40;;;;;;4958017;28;20530;-78
2022/07/15 02:11:51;;;;;;;7.00;0.80;;;14.90;87.50;;;;;;4957955;28;20037;-78
2022/07/15 02:14:16;;;;;;;4.30;0.73;;;14.90;88.20;;;;;;4957899;28;20109;-78
2022/07/15 02:16:42;;;;;;;7.78;0.70;;;14.90;87.70;;;;;;4958006;28;20030;-79
2022/07/15 02:19:08;;;;;;;4.32;0.68;;;14.90;87.90;;;;;;4973781;28;20043;-79
2022/07/15 02:21:35;;;;;;;5.45;1.20;;;15.00;88.00;;;;;;4989246;28;20494;-79
2022/07/15 02:24:01;;;;;;;4.38;0.70;;;15.00;88.00;;;;;;4973766;28;20401;-79
2022/07/15 02:26:27;;;;;;;3.78;0.95;;;15.00;88.00;;;;;;4973640;28;20030;-79
2022/07/15 02:28:53;;;;;;;4.85;0.73;;;15.00;88.00;;;;;;4973564;28;20125;-78
2022/07/15 02:31:19;;;;;;;7.13;1.20;;;15.00;88.10;;;;;;4957580;28;20031;-82
2022/07/15 02:33:45;;;;;;;7.72;0.80;;;15.00;88.10;;;;;;4974906;28;20042;-82
2022/07/15 02:36:12;;;;;;;6.22;0.70;;;15.10;88.30;;;;;;4973567;28;20031;-83
2022/07/15 02:38:38;;;;;;;5.95;1.00;;;15.10;88.40;;;;;;4973898;28;20447;-82
2022/07/15 02:41:04;;;;;;;3.67;0.80;;;15.10;88.40;;;;;;4941992;28;20121;-82
2022/07/15 02:43:30;;;;;;;6.63;0.90;;;15.10;88.30;;;;;;4957577;28;20475;-78
2022/07/15 02:45:56;;;;;;;3.70;0.70;;;15.10;88.20;;;;;;4958027;28;20037;-78
2022/07/15 02:48:22;;;;;;;4.03;0.77;;;15.10;88.20;;;;;;4973462;28;20026;-78
2022/07/15 02:50:48;;;;;;;8.07;1.00;;;15.10;88.20;;;;;;4957212;28;20546;-79
2022/07/15 02:53:15;;;;;;;6.00;1.02;;;15.10;88.10;;;;;;4957379;28;20468;-78
2022/07/15 02:55:40;;;;;;;9.80;1.30;;;15.00;88.20;;;;;;4957239;28;20066;-79
2022/07/15 02:58:06;;;;;;;5.72;0.88;;;15.00;88.20;;;;;;4941665;28;20035;-79
2022/07/15 03:00:33;;;;;;;4.78;0.82;;;15.00;88.30;;;;;;4957314;28;20442;-79
2022/07/15 03:02:58;;;;;;;7.50;1.10;;;15.00;88.40;;;;;;4992436;28;20031;-78
2022/07/15 03:05:24;;;;;;;2.95;0.80;;;15.00;88.40;;;;;;4974753;28;20489;-78
2022/07/15 03:07:50;;;;;;;5.68;1.00;;;15.00;88.50;;;;;;4973359;28;20490;-78
2022/07/15 03:10:17;;;;;;;5.30;0.80;;;15.00;88.60;;;;;;4957385;28;20030;-78
2022/07/15 03:12:42;;;;;;;5.63;1.17;;;14.90;88.60;;;;;;4991379;28;20027;-79
2022/07/15 03:15:10;;;;;;;7.13;1.38;;;14.90;89.40;;;;;;4946331;28;20034;-78
2022/07/15 03:17:35;;;;;;;6.18;1.02;;;14.90;88.90;;;;;;4979917;28;20034;-78
2022/07/15 03:20:01;;;;;;;6.18;1.25;;;14.90;88.90;;;;;;4947432;28;20050;-78
2022/07/15 03:22:29;;;;;;;6.50;0.75;;;14.90;89.00;;;;;;4964866;28;20041;-78
2022/07/15 03:24:55;;;;;;;6.68;1.27;;;14.90;89.00;;;;;;4964490;28;20057;-79
2022/07/15 03:27:21;;;;;;;8.02;1.08;;;14.80;89.10;;;;;;4976935;28;20035;-79
2022/07/15 03:29:46;;;;;;;5.90;1.52;;;14.80;89.20;;;;;;4957860;28;20070;-78
2022/07/15 03:32:15;;;;;;;5.53;1.10;;;14.90;89.40;;;;;;4957425;28;20571;-79
2022/07/15 03:34:41;;;;;;;4.53;0.82;;;14.80;89.40;;;;;;4945123;28;20050;-79
2022/07/15 03:37:07;;;;;;;5.22;1.00;;;14.80;89.50;;;;;;4976789;28;20031;-78
2022/07/15 03:39:33;;;;;;;4.45;1.00;;;14.70;89.50;;;;;;4960782;28;20085;-78
2022/07/15 03:41:58;;;;;;;4.15;0.82;;;14.80;89.60;;;;;;4960575;28;20035;-78
2022/07/15 03:44:24;;;;;;;7.10;1.30;;;14.70;89.60;;;;;;4960772;28;20031;-78
2022/07/15 03:46:50;;;;;;;5.72;0.93;;;14.70;89.80;;;;;;4976714;28;20034;-78
2022/07/15 03:49:17;;;;;;;5.88;1.10;;;14.60;90.00;;;;;;4992820;28;20035;-78
2022/07/15 03:51:44;;;;;;;6.00;1.25;;;14.60;90.00;;;;;;4944759;28;20031;-78
2022/07/15 03:54:09;;;;;;;5.05;0.80;;;14.60;90.00;;;;;;4992604;28;20050;-78
2022/07/15 03:56:36;;;;;;;6.78;1.10;;;14.60;90.10;;;;;;4960091;28;20097;-79
2022/07/15 03:59:02;;;;;;;3.80;0.80;;;14.50;90.20;;;;;;4976431;28;20023;-78
2022/07/15 04:01:28;;;;;;;6.72;1.10;;;14.50;90.20;;;;;;4977581;28;20033;-78
2022/07/15 04:03:54;;;;;;;5.35;0.90;;;14.60;90.40;;;;;;4976198;28;20101;-78
2022/07/15 04:06:20;;;;;;;5.55;1.13;;;14.50;90.30;;;;;;4960112;28;20122;-78
2022/07/15 04:08:46;;;;;;;7.65;1.23;;;14.50;90.40;;;;;;4960041;28;20584;-78
2022/07/15 04:11:13;;;;;;;7.25;1.30;;;14.50;90.40;;;;;;4976232;28;20034;-78
2022/07/15 04:13:39;;;;;;;8.05;1.20;;;14.60;90.50;;;;;;4944197;28;20384;-78
2022/07/15 04:16:06;;;;;;;4.45;0.80;;;14.50;90.50;;;;;;4977226;28;20031;-78
2022/07/15 04:18:32;;;;;;;6.68;1.25;;;14.50;90.50;;;;;;4959653;28;20491;-79
2022/07/15 04:20:58;;;;;;;4.10;0.95;;;14.50;90.60;;;;;;4960435;28;20069;-78
2022/07/15 04:23:24;;;;;;;4.63;1.00;;;14.50;90.60;;;;;;4943938;28;20058;-78
2022/07/15 04:25:53;;;;;;;3.65;1.00;;;14.50;90.70;;;;;;4959926;28;20034;-78
2022/07/15 04:28:20;;;;;;;4.70;1.10;;;14.40;90.70;;;;;;4960154;28;20031;-82
2022/07/15 04:30:45;;;;;;;3.22;0.80;;;14.50;90.80;;;;;;4962874;28;20494;-82
2022/07/15 04:33:11;;;;;;;4.32;0.80;;;14.40;90.80;;;;;;4990929;28;20045;-82
2022/07/15 04:35:38;;;;;;;6.20;0.82;;;14.40;90.90;;;;;;5010905;28;20558;-82
2022/07/15 04:38:04;;;;;;;6.75;1.38;;;14.30;90.90;;;;;;4978429;28;20122;-82
2022/07/15 04:40:32;;;;;;;5.38;1.17;;;14.30;91.00;;;;;;4978172;28;20031;-82
2022/07/15 04:42:59;;;;;;;3.88;1.00;;;14.30;91.00;;;;;;4978496;28;20031;-86
2022/07/15 04:45:26;;;;;;;5.63;1.10;;;14.40;91.10;;;;;;4978181;28;20542;-86
2022/07/15 04:47:52;;;;;;;6.68;1.00;;;14.30;91.20;;;;;;4995237;28;20027;-84
2022/07/15 04:53:02;;;;;;;8.98;1.00;;;14.30;91.20;;;;;;4995848;28;20033;-85
2022/07/15 04:55:27;;;;;;;7.00;0.73;;;14.30;91.30;;;;;;4979252;28;20023;-84
2022/07/15 04:57:53;;;;;;;6.85;0.88;;;14.30;91.20;;;;;;4978886;28;20501;-85
2022/07/15 05:00:19;;;;;;;4.63;1.02;;;14.30;91.30;;;;;;4995188;28;20390;-85
2022/07/15 05:02:45;;;;;;;5.85;0.90;;;14.30;91.30;;;;;;4963047;28;20030;-85
2022/07/15 05:05:11;;;;;;;5.88;0.90;;;14.40;91.40;;;;;;4962669;28;20033;-85
2022/07/15 05:07:37;;;;;;;6.88;0.77;;;14.30;91.40;;;;;;4979143;28;20125;-88
2022/07/15 05:10:07;;;;;;;3.53;0.80;;;14.30;91.40;;;;;;4995050;28;20117;-84
2022/07/15 05:12:32;;;;;;;3.35;0.77;;;14.30;91.50;;;;;;4962887;28;20031;-85
2022/07/15 05:14:58;;;;;;;4.93;1.02;;;14.30;91.50;;;;;;4979593;28;20109;-85
2022/07/15 05:17:25;;;;;;;5.60;1.00;;;14.30;91.50;;;;;;4978854;28;20088;-84
2022/07/15 05:19:52;;;;;;;6.95;0.82;;;14.30;91.50;;;;;;4994674;28;20557;-85
2022/07/15 05:22:18;;;;;;;5.70;1.08;;;14.30;91.60;;;;;;4978636;28;20037;-85
2022/07/15 05:24:44;;;;;;;6.13;1.15;;;14.30;91.70;;;;;;4994632;28;20018;-85
2022/07/15 05:27:10;;;;;;;5.35;1.10;;;14.40;91.70;;;;;;4978328;28;20037;-85
2022/07/15 05:29:35;;;;;;;8.32;1.20;;;14.40;91.70;;;;;;4978115;28;20038;-85
2022/07/15 05:32:01;;;;;;;7.53;0.90;;;14.40;91.80;;;;;;4962144;28;20105;-86
2022/07/15 05:34:27;;;;;;;4.38;0.80;;;14.40;91.80;;;;;;4978063;28;20030;-85
2022/07/15 05:36:52;;;;;;;8.07;1.48;;;14.40;91.80;;;;;;4978427;28;20154;-85
2022/07/15 05:39:18;;;;;;;3.65;1.00;;;14.40;91.80;;;;;;4994307;28;20176;-86
2022/07/15 05:41:44;;;;;;;6.03;1.20;;;14.50;91.80;;;;;;4994430;28;20026;-86
2022/07/15 05:44:09;;;;;;;4.95;1.00;;;14.50;91.80;;;;;;4978056;28;20034;-86
2022/07/15 05:46:36;;;;;;;7.10;1.00;;;14.60;91.90;;;;;;4994154;28;20105;-86
2022/07/15 05:49:01;;;;;;;5.28;0.90;;;14.60;91.90;;;;;;4978380;28;20033;-85
2022/07/15 05:51:28;;;;;;;5.07;0.70;;;14.60;91.90;;;;;;4977922;28;20026;-86
2022/07/15 05:53:54;;;;;;;6.18;0.80;;;14.70;91.90;;;;;;4977842;28;20372;-86
2022/07/15 05:56:19;;;;;;;6.68;0.70;;;14.80;91.90;;;;;;4993672;28;20061;-85
2022/07/15 05:58:45;;;;;;;6.40;0.90;;;14.80;91.90;;;;;;4993900;28;20482;-85
2022/07/15 06:01:11;;;;;;;7.57;1.20;;;14.80;92.00;;;;;;4962255;28;20085;-84
2022/07/15 06:03:36;;;;;;;7.10;0.85;;;14.90;91.80;;;;;;4993801;28;20058;-85
2022/07/15 06:06:03;;;;;;;5.15;0.80;;;14.90;91.80;;;;;;4994962;28;20018;-86
2022/07/15 06:08:29;;;;;;;4.45;1.10;;;14.90;91.70;;;;;;4961612;28;20026;-80
2022/07/15 06:10:55;;;;;;;3.00;0.55;;;15.00;91.70;;;;;;5009571;28;20033;-81
2022/07/15 06:13:22;;;;;;;6.63;0.75;;;15.10;91.60;;;;;;4993458;28;20039;-81
2022/07/15 06:15:48;;;;;;;5.88;0.68;;;15.10;91.80;;;;;;4961090;28;20367;-81
2022/07/15 06:18:13;;;;;;;7.07;0.80;;;15.10;91.50;;;;;;4976587;28;20558;-82
2022/07/15 06:20:39;;;;;;;5.63;0.50;;;15.20;91.40;;;;;;4977149;28;20161;-82
2022/07/15 06:23:05;;;;;;;3.33;0.60;;;15.20;91.40;;;;;;5009454;28;20033;-82
2022/07/15 06:25:31;;;;;;;2.90;0.40;;;15.30;91.30;;;;;;4976765;28;20026;-81
2022/07/15 06:27:57;;;;;;;5.80;0.70;;;15.30;91.20;;;;;;4977149;28;20158;-82
2022/07/15 06:30:22;;;;;;;4.55;0.63;;;15.40;91.20;;;;;;4992884;28;20026;-82
2022/07/15 06:32:48;;;;;;;4.75;0.75;;;15.40;91.40;;;;;;4976540;28;20121;-82
2022/07/15 06:35:14;;;;;;;7.40;1.10;;;15.50;91.00;;;;;;4961003;28;20026;-82
2022/07/15 06:37:40;;;;;;;8.10;0.60;;;15.50;91.00;;;;;;4992804;28;20077;-81
2022/07/15 06:40:07;;;;;;;2.40;0.50;;;15.60;90.90;;;;;;4975020;28;20026;-82
2022/07/15 06:42:32;;;;;;;4.45;0.60;;;15.60;90.90;;;;;;4996867;28;20057;-81
2022/07/15 06:44:58;;;;;;;3.67;0.55;;;15.70;90.80;;;;;;4990377;28;20087;-82
2022/07/15 06:47:24;;;;;;;4.22;0.60;;;15.70;90.70;;;;;;5012564;28;20054;-81
2022/07/15 06:49:50;;;;;;;3.05;0.73;;;15.60;90.50;;;;;;4996431;28;20112;-81
2022/07/15 06:52:16;;;;;;;7.38;0.75;;;15.80;90.40;;;;;;4996436;28;20025;-81
2022/07/15 06:54:42;;;;;;;6.60;0.88;;;15.80;90.20;;;;;;4995965;28;20032;-82
2022/07/15 06:57:08;;;;;;;2.72;0.32;;;15.90;90.10;;;;;;5007993;28;20026;-82
2022/07/15 06:59:34;;;;;;;2.15;0.50;;;15.90;90.00;;;;;;5000294;28;20028;-81
2022/07/15 07:02:01;;;;;;;6.32;0.50;;;16.00;89.90;;;;;;4996404;28;20482;-82
2022/07/15 07:04:26;;;;;;;2.85;0.50;;;16.00;89.40;;;;;;5012355;28;20044;-82
2022/07/15 07:06:52;;;;;;;4.32;0.60;;;16.10;89.10;;;;;;5012123;28;20026;-81
2022/07/15 07:09:18;;;;;;;3.95;0.50;;;16.10;88.70;;;;;;4984164;28;20501;-82
2022/07/15 07:11:44;;;;;;;3.38;0.50;;;16.20;88.70;;;;;;4972173;28;20089;-82
2022/07/15 07:14:09;;;;;;;5.05;0.40;;;16.20;88.40;;;;;;4986851;28;20029;-82
2022/07/15 07:16:35;;;;;;;5.43;0.50;;;16.30;87.90;;;;;;4999756;28;20022;-82
2022/07/15 07:19:01;;;;;;;4.40;0.52;;;16.30;87.70;;;;;;4999300;28;20045;-82
2022/07/15 07:21:27;;;;;;;4.63;0.60;;;16.40;87.40;;;;;;4973788;28;20027;-82
2022/07/15 07:23:53;;;;;;;5.60;0.60;;;16.50;86.80;;;;;;4955445;28;20031;-82
2022/07/15 07:26:21;;;;;;;4.13;0.50;;;16.50;86.60;;;;;;4959143;28;20049;-83
2022/07/15 07:28:48;;;;;;;5.57;0.50;;;16.60;86.30;;;;;;4977424;28;20035;-82
2022/07/15 07:31:14;;;;;;;3.97;0.60;;;16.60;86.00;;;;;;4996318;28;20062;-83
2022/07/15 07:33:42;;;;;;;4.95;0.93;;;16.70;85.70;;;;;;4993275;28;20027;-83
2022/07/15 07:36:11;;;;;;;2.10;0.50;;;16.80;85.40;;;;;;5012980;28;20034;-83
2022/07/15 07:38:37;;;;;;;2.17;0.40;;;16.80;85.00;;;;;;5016076;28;20466;-81
2022/07/15 07:41:03;;;;;;;2.47;0.32;;;16.90;85.30;;;;;;4983392;28;20056;-80
2022/07/15 07:43:29;;;;;;;1.08;0.20;;;16.90;84.10;;;;;;5017033;28;20028;-82
2022/07/15 07:45:55;;;;;;;4.75;0.52;;;17.00;84.00;;;;;;4999270;28;20128;-81
2022/07/15 07:48:21;;;;;;;5.40;0.70;;;17.00;83.70;;;;;;5016974;28;20018;-82
2022/07/15 07:50:47;;;;;;;4.80;0.45;;;17.10;83.20;;;;;;4999704;28;20099;-82
2022/07/15 07:53:12;;;;;;;6.57;0.60;;;17.10;83.20;;;;;;5016584;28;20033;-87
2022/07/15 07:55:38;;;;;;;3.78;0.47;;;17.20;82.70;;;;;;5016148;28;20029;-86
2022/07/15 07:58:05;;;;;;;2.80;0.50;;;17.30;82.10;;;;;;5016312;28;20033;-87
2022/07/15 08:00:31;;;;;;;5.80;0.65;;;17.40;82.00;;;;;;5032384;28;20018;-85
2022/07/15 08:02:58;;;;;;;3.05;0.40;;;17.40;81.50;;;;;;4999698;28;20508;-86
2022/07/15 08:05:25;;;;;;;6.05;0.50;;;17.50;81.20;;;;;;4999751;28;20029;-87
2022/07/15 08:07:51;;;;;;;3.72;0.38;;;17.60;80.90;;;;;;5015840;28;20030;-87
2022/07/15 08:10:19;;;;;;;3.30;0.50;;;17.60;80.50;;;;;;5015941;28;20041;-85
2022/07/15 08:12:45;;;;;;;2.47;0.40;;;17.70;79.90;;;;;;5016086;28;20029;-87
2022/07/15 08:15:12;;;;;;;2.45;0.30;;;17.70;79.60;;;;;;5016115;28;20022;-85
2022/07/15 08:17:39;;;;;;;4.93;0.50;;;17.80;79.00;;;;;;5015867;28;20032;-84
2022/07/15 08:20:07;;;;;;;4.38;0.45;;;17.90;78.90;;;;;;5015294;28;20050;-86
2022/07/15 08:22:33;;;;;;;5.35;0.40;;;18.00;78.90;;;;;;5032515;28;20061;-84
2022/07/15 08:24:59;;;;;;;2.90;0.30;;;18.20;78.80;;;;;;5015660;28;20076;-86
2022/07/15 08:27:27;;;;;;;3.05;0.40;;;18.30;78.30;;;;;;5016105;28;20034;-85
2022/07/15 08:29:53;;;;;;;2.58;0.40;;;18.40;77.50;;;;;;5015869;28;20049;-83
2022/07/15 08:32:19;;;;;;;3.13;0.40;;;18.50;76.30;;;;;;5015223;28;20474;-84
2022/07/15 08:34:47;;;;;;;2.05;0.47;;;18.70;75.50;;;;;;5015267;28;20030;-84
2022/07/15 08:37:13;;;;;;;3.38;0.50;;;18.70;75.10;;;;;;4999607;28;20370;-84
2022/07/15 08:39:40;;;;;;;4.65;0.50;;;18.80;74.60;;;;;;5015543;28;20022;-83
2022/07/15 08:42:06;;;;;;;2.10;0.45;;;18.80;73.90;;;;;;5015499;28;20530;-87
2022/07/15 08:44:33;;;;;;;4.18;0.47;;;18.90;73.30;;;;;;5015646;28;20433;-86
2022/07/15 08:47:03;;;;;;;3.63;0.43;;;18.90;72.90;;;;;;5015161;28;20104;-85
2022/07/15 08:49:31;;;;;;;2.20;0.57;;;19.00;72.80;;;;;;5015131;28;20024;-85
2022/07/15 08:51:59;;;;;;;4.07;0.60;;;19.00;71.40;;;;;;5016154;28;20029;-88
2022/07/15 08:54:25;;;;;;;3.25;0.40;;;19.10;69.90;;;;;;5015450;28;20056;-85
2022/07/15 08:56:51;;;;;;;5.32;0.40;;;19.10;69.30;;;;;;5015971;28;20062;-85
2022/07/15 08:59:17;;;;;;;5.65;0.70;;;19.20;69.70;;;;;;5014620;28;20378;-81
2022/07/15 09:01:45;;;;;;;4.38;0.60;;;19.30;69.60;;;;;;5014199;28;20026;-87
2022/07/15 09:04:12;;;;;;;3.03;0.35;;;19.50;69.20;;;;;;5002353;28;20026;-87
2022/07/15 09:06:39;;;;;;;4.40;0.57;;;19.50;68.80;;;;;;5014916;28;20060;-88
2022/07/15 09:09:27;;;;;;;3.65;0.45;;;19.60;68.40;;;;;;5016129;28;20018;-88
2022/07/15 09:12:11;;;;;;;4.90;0.50;;;19.80;68.10;;;;;;5015494;28;20374;-89
2022/07/15 09:14:38;;;;;;;;;;;19.80;67.40;;;;;;5015144;28;20030;-85
2022/07/15 09:17:20;;;;;;;3.53;0.47;;;19.90;67.00;;;;;;5014708;28;19910;-88
2022/07/15 09:19:57;;;;;;;4.35;0.40;;;19.90;67.10;;;;;;4998684;28;20049;-87
2022/07/15 09:22:23;;;;;;;1.98;0.40;;;20.10;66.90;;;;;;4997350;28;20027;-89
2022/07/15 09:25:01;;;;;;;4.63;0.50;;;20.20;66.60;;;;;;4996132;28;20116;-88
2022/07/15 09:27:32;;;;;;;2.30;0.30;;;20.30;66.00;;;;;;4996339;28;20077;-88
2022/07/15 09:33:34;;;;;;;1.33;0.30;;;20.60;65.00;;;;;;4997202;28;20108;-88
2022/07/15 09:36:18;;;;;;;3.10;0.60;;;20.70;64.90;;;;;;4995471;28;20033;-90
2022/07/15 09:39:00;;;;;;;4.78;0.57;;;20.90;64.70;;;;;;4994004;28;20019;-88
2022/07/15 09:41:34;;;;;;;2.72;0.40;;;20.90;64.40;;;;;;5013128;28;20113;-88
2022/07/15 09:44:05;;;;;;;2.85;0.40;;;21.00;63.90;;;;;;5030112;28;20084;-86
2022/07/15 09:46:52;;;;;;;2.90;0.30;;;21.00;63.10;;;;;;5010455;28;20019;-87
2022/07/15 09:49:26;;;;;;;1.70;0.28;;;21.00;61.10;;;;;;4976748;28;20075;-89
2022/07/15 09:52:07;;;;;;;3.53;0.50;;;20.90;60.90;;;;;;4976300;28;20019;-85
2022/07/15 09:54:34;;;;;;;1.85;0.40;;;20.90;61.20;;;;;;4975692;28;20153;-88
2022/07/15 09:57:02;;;;;;;2.33;0.47;;;20.90;61.60;;;;;;4975565;28;20031;-88
2022/07/15 09:59:29;;;;;;;3.08;0.52;;;20.90;61.40;;;;;;4976510;28;20546;-86
2022/07/15 10:01:55;;;;;;;3.40;0.40;;;20.90;61.40;;;;;;4976159;28;20030;-87
2022/07/15 10:04:23;;;;;;;3.22;0.30;;;20.90;61.40;;;;;;4974715;28;20045;-88
2022/07/15 10:06:51;;;;;;;4.47;0.40;;;21.00;61.40;;;;;;4993899;28;20029;-86
2022/07/15 10:09:22;;;;;;;4.25;0.60;;;21.00;61.30;;;;;;4995189;28;20553;-87
2022/07/15 10:11:52;;;;;;;1.85;0.22;;;21.20;61.30;;;;;;4994736;28;20026;-89
2022/07/15 10:14:34;;;;;;;2.30;0.30;;;21.30;61.00;;;;;;4995169;28;20030;-86
2022/07/15 10:17:18;;;;;;;2.50;0.25;;;21.50;60.80;;;;;;4994516;28;20097;-87
2022/07/15 10:20:11;;;;;;;1.33;0.22;;;21.80;60.30;;;;;;4994247;28;20137;-86
2022/07/15 10:22:59;;;;;;;3.58;0.50;;;22.00;59.40;;;;;;4979025;28;20030;-85
2022/07/15 10:25:55;;;;;;;2.28;0.43;;;22.10;59.20;;;;;;4993541;28;20093;-87
2022/07/15 10:28:33;;;;;;;1.40;0.20;;;22.30;59.10;;;;;;4993996;28;20058;-87
2022/07/15 10:31:17;;;;;;;3.42;0.30;;;22.30;58.90;;;;;;5007860;28;20109;-87
2022/07/15 10:34:03;;;;;;;1.83;0.30;;;22.30;58.40;;;;;;5005272;28;20402;-86
2022/07/15 10:36:47;;;;;;;2.03;0.30;;;22.40;58.60;;;;;;5001904;28;20027;-85
2022/07/15 10:39:15;;;;;;;2.80;0.35;;;22.70;57.90;;;;;;5021012;28;20053;-87
2022/07/15 10:42:02;;;;;;;2.97;0.30;;;22.90;57.20;;;;;;4994264;28;20019;-85
2022/07/15 10:44:33;;;;;;;2.03;0.30;;;23.00;57.00;;;;;;4993154;28;20045;-89
2022/07/15 10:47:19;;;;;;;1.30;0.25;;;23.00;56.90;;;;;;4992036;28;20141;-86
2022/07/15 10:49:50;;;;;;;1.17;0.25;;;23.10;56.80;;;;;;4990358;28;20482;-88
2022/07/15 10:52:19;;;;;;;2.33;0.35;;;23.30;56.00;;;;;;5006356;28;20026;-88
2022/07/15 10:54:55;;;;;;;2.42;0.20;;;23.40;55.90;;;;;;4998425;28;20034;-86
2022/07/15 10:57:41;;;;;;;4.47;0.60;;;23.50;55.80;;;;;;5001523;28;20055;-89
2022/07/15 11:00:33;;;;;;;3.50;0.40;;;23.40;55.30;;;;;;5006512;28;20030;-87
2022/07/15 11:03:06;;;;;;;3.33;0.40;;;23.40;55.60;;;;;;4974277;28;20439;-88
2022/07/15 11:05:33;;;;;;;2.03;0.30;;;23.60;55.60;;;;;;5004769;28;20113;-89
2022/07/15 11:07:59;;;;;;;3.58;0.40;;;24.00;55.30;;;;;;5012902;28;20030;-89
2022/07/15 11:10:25;;;;;;;3.83;0.40;;;24.60;55.40;;;;;;5013767;28;20038;-86
2022/07/15 11:12:51;;;;;;;1.77;0.30;;;25.40;55.20;;;;;;5013478;28;20034;-86
2022/07/15 11:15:24;;;;;;;1.45;0.30;;;26.00;54.10;;;;;;5028856;28;20030;-87
2022/07/15 11:17:53;;;;;;;3.42;0.32;;;26.30;53.40;;;;;;4997965;28;20485;-83
2022/07/15 11:20:31;;;;;;;2.40;0.40;;;26.30;52.40;;;;;;4992771;28;20053;-84
2022/07/15 11:22:58;;;;;;;1.65;0.20;;;26.10;51.20;;;;;;4992439;28;20026;-81
2022/07/15 11:25:37;;;;;;;4.90;0.50;;;25.90;50.30;;;;;;4976487;28;20172;-83
2022/07/15 11:28:17;;;;;;;1.52;0.40;;;25.60;49.80;;;;;;4992207;28;20018;-82
2022/07/15 11:30:53;;;;;;;4.45;0.30;;;25.30;49.80;;;;;;4976486;28;20172;-87
2022/07/15 11:33:20;;;;;;;1.55;0.20;;;25.50;51.10;;;;;;4993107;28;20072;-87
2022/07/15 11:35:48;;;;;;;1.77;0.35;;;25.70;50.30;;;;;;4961505;28;20590;-87
2022/07/15 11:38:14;;;;;;;3.30;0.38;;;25.60;49.70;;;;;;4993511;28;20032;-87
2022/07/15 11:46:17;;;;;;;4.43;0.30;;;25.00;49.10;;;;;;5014312;28;20045;-87
2022/07/15 11:48:43;;;;;;;2.65;0.30;;;24.60;49.60;;;;;;5013095;28;20022;-88
2022/07/15 11:51:11;;;;;;;3.15;0.30;;;24.40;49.80;;;;;;4996704;28;20048;-87
2022/07/15 11:53:44;;;;;;;2.30;0.30;;;24.30;50.20;;;;;;4996114;28;20041;-87
2022/07/15 11:56:12;;;;;;;3.65;0.28;;;24.40;50.80;;;;;;5017164;28;20537;-85
2022/07/15 11:58:40;;;;;;;1.90;0.30;;;25.10;51.10;;;;;;5015449;28;20033;-85
2022/07/15 12:01:14;;;;;;;2.67;0.40;;;25.90;51.00;;;;;;5015969;28;20096;-85
2022/07/15 12:03:43;;;;;;;1.38;0.30;;;26.40;50.50;;;;;;5015953;28;20018;-85
2022/07/15 12:06:21;;;;;;;4.25;0.40;;;26.60;50.20;;;;;;5016033;28;20084;-86
2022/07/15 12:08:55;;;;;;;4.70;0.30;;;26.70;49.40;;;;;;5015319;28;20065;-84
2022/07/15 12:11:32;;;;;;;1.85;0.25;;;26.80;48.90;;;;;;5015762;28;20095;-85
2022/07/15 12:14:04;;;;;;;1.88;0.32;;;26.70;48.30;;;;;;5015434;28;20022;-84
2022/07/15 12:16:39;;;;;;;2.05;0.20;;;26.60;47.90;;;;;;5015117;28;20022;-79
2022/07/15 12:19:08;;;;;;;1.90;0.30;;;26.50;47.90;;;;;;5016381;28;20177;-80
2022/07/15 12:21:36;;;;;;;2.65;0.20;;;26.30;47.90;;;;;;5015012;28;20425;-78
2022/07/15 12:24:04;;;;;;;2.03;0.20;;;26.20;47.90;;;;;;5015255;28;20484;-79
2022/07/15 12:26:31;;;;;;;2.45;0.40;;;26.10;48.00;;;;;;5014330;28;20109;-81
2022/07/15 12:29:00;;;;;;;1.52;0.20;;;25.90;48.00;;;;;;4975928;28;20034;-81
2022/07/15 12:31:27;;;;;;;1.33;0.25;;;25.90;48.10;;;;;;4977341;28;20027;-82
2022/07/15 12:33:53;;;;;;;1.75;0.30;;;25.70;48.10;;;;;;4995145;28;20486;-79
2022/07/15 12:36:24;;;;;;;1.30;0.20;;;25.60;48.30;;;;;;4978642;28;20023;-82
2022/07/15 12:39:03;;;;;;;2.53;0.30;;;25.60;48.60;;;;;;4994998;28;20113;-81
2022/07/15 12:41:30;;;;;;;1.17;0.15;;;25.50;48.60;;;;;;4995024;28;20026;-82
2022/07/15 12:43:58;;;;;;;2.42;0.30;;;25.40;48.40;;;;;;4995294;28;20026;-78
2022/07/15 12:46:55;;;;;;;2.10;0.20;;;25.40;48.30;;;;;;4994795;28;20030;-80
2022/07/15 12:49:39;;;;;;;1.73;0.10;;;25.20;48.40;;;;;;4996476;28;20023;-80
2022/07/15 12:52:17;;;;;;;2.13;0.47;;;25.20;48.60;;;;;;4996351;28;20105;-77
2022/07/15 12:54:43;;;;;;;2.13;0.20;;;25.10;48.80;;;;;;4996320;28;20030;-79
2022/07/15 12:57:22;;;;;;;3.20;0.40;;;25.00;49.00;;;;;;4996037;28;20487;-80
2022/07/15 12:59:58;;;;;;;1.38;0.20;;;25.00;49.10;;;;;;4997659;28;20054;-77
2022/07/15 13:02:25;;;;;;;2.17;0.30;;;24.90;49.10;;;;;;4975276;28;20023;-81
2022/07/15 13:04:51;;;;;;;1.90;0.20;;;24.90;49.20;;;;;;5007381;28;20034;-80
2022/07/15 13:07:17;;;;;;;2.90;0.20;;;24.90;49.30;;;;;;4990984;28;20034;-79
2022/07/15 13:09:44;;;;;;;1.90;0.40;;;25.00;49.40;;;;;;4987712;28;20077;-81